createdAt,value
2018-03-24T00:00:05.028Z,12.04
2018-03-24T00:05:02.912Z,0
2018-03-24T00:10:03.603Z,62.88
2018-03-24T00:15:03.196Z,79.95
2018-03-24T00:20:02.771Z,26.75
2018-03-24T00:25:03.338Z,0
2018-03-24T00:30:02.949Z,90.19
2018-03-24T00:35:03.640Z,99.99
2018-03-24T00:40:03.310Z,26.36
2018-03-24T00:45:02.855Z,56.34
2018-03-24T00:50:03.158Z,99.99
2018-03-24T00:55:03.672Z,65.53
2018-03-24T01:00:03.301Z,0
2018-03-24T01:05:02.952Z,0
2018-03-24T01:10:03.560Z,99.99
2018-03-24T01:15:03.147Z,99.99
2018-03-24T01:20:03.703Z,0
2018-03-24T01:25:03.295Z,0
2018-03-24T01:30:02.920Z,50.64
2018-03-24T01:35:03.539Z,0
2018-03-24T01:40:03.145Z,9.29
2018-03-24T01:45:03.749Z,99.96
2018-03-24T01:50:03.259Z,0.66
2018-03-24T01:55:02.778Z,84.98
2018-03-24T02:00:03.417Z,0
2018-03-24T02:05:03.049Z,0
2018-03-24T02:10:03.763Z,0
2018-03-24T02:15:03.488Z,0
2018-03-24T02:20:03.105Z,0
2018-03-24T02:25:03.658Z,0
2018-03-24T02:30:03.264Z,0
2018-03-24T02:35:02.854Z,0
2018-03-24T02:40:03.480Z,0
2018-03-24T02:45:03.081Z,0
2018-03-24T02:50:03.705Z,0
2018-03-24T02:55:03.346Z,0
2018-03-24T03:00:02.916Z,0
2018-03-24T03:05:03.473Z,0
2018-03-24T03:10:03.130Z,0
2018-03-24T03:15:03.750Z,0
2018-03-24T03:20:03.382Z,0
2018-03-24T03:25:02.935Z,0
2018-03-24T03:30:03.578Z,0
2018-03-24T03:35:03.205Z,0
2018-03-24T03:40:02.823Z,0
2018-03-24T03:45:03.377Z,0.09
2018-03-24T03:50:02.965Z,0.38
2018-03-24T03:55:03.499Z,0.95
2018-03-24T04:00:03.126Z,1.14
2018-03-24T04:05:03.732Z,1.42
2018-03-24T04:10:03.388Z,1.8
2018-03-24T04:15:02.912Z,1.89
2018-03-24T04:20:03.582Z,2.37
2018-03-24T04:25:03.137Z,2.66
2018-03-24T04:30:03.707Z,3.03
2018-03-24T04:35:03.299Z,3.31
2018-03-24T04:40:02.962Z,3.7
2018-03-24T04:45:03.497Z,4.17
2018-03-24T04:50:03.096Z,4.27
2018-03-24T04:55:03.699Z,4.55
2018-03-24T05:00:03.260Z,4.74
2018-03-24T05:05:03.778Z,5.4
2018-03-24T05:10:03.364Z,5.59
2018-03-24T05:15:02.873Z,5.59
2018-03-24T05:20:03.384Z,5.97
2018-03-24T05:25:03.025Z,6.35
2018-03-24T05:30:03.724Z,6.63
2018-03-24T05:35:03.313Z,6.73
2018-03-24T05:40:02.924Z,6.54
2018-03-24T05:45:03.470Z,7.01
2018-03-24T05:50:03.107Z,7.4
2018-03-24T05:55:03.697Z,8.25
2018-03-24T06:00:03.246Z,8.63
2018-03-24T06:05:02.811Z,9.01
2018-03-24T06:10:03.455Z,9.48
2018-03-24T06:15:02.984Z,9.77
2018-03-24T06:20:03.690Z,9.48
2018-03-24T06:25:03.243Z,10.43
2018-03-24T06:30:02.806Z,10.43
2018-03-24T06:35:03.348Z,10.05
2018-03-24T06:40:03.008Z,9.95
2018-03-24T06:45:03.616Z,10.24
2018-03-24T06:50:03.192Z,11
2018-03-24T06:55:03.732Z,11.94
2018-03-24T07:00:03.319Z,12.61
2018-03-24T07:05:02.912Z,14.22
2018-03-24T07:10:03.452Z,15.08
2018-03-24T07:15:02.951Z,15.55
2018-03-24T07:20:03.929Z,15.74
2018-03-24T07:25:03.584Z,19.07
2018-03-24T07:30:03.183Z,19.45
2018-03-24T07:35:03.805Z,19.73
2018-03-24T07:40:03.500Z,21.15
2018-03-24T07:45:03.122Z,22.31
2018-03-24T07:50:03.668Z,27.72
2018-03-24T07:55:03.221Z,29.71
2018-03-24T08:00:03.790Z,30.57
2018-03-24T08:05:03.433Z,33.05
2018-03-24T08:10:03.035Z,35.81
2018-03-24T08:15:03.630Z,42
2018-03-24T08:20:03.224Z,53.78
2018-03-24T08:25:02.828Z,48.94
2018-03-24T08:30:03.395Z,46.49
2018-03-24T08:35:03.031Z,67.82
2018-03-24T08:40:03.646Z,66.14
2018-03-24T08:45:03.184Z,80.52
2018-03-24T08:50:03.883Z,73.85
2018-03-24T08:55:03.456Z,84.41
2018-03-24T09:00:03.062Z,91.08
2018-03-24T09:05:03.652Z,99.99
2018-03-24T09:10:03.236Z,99.99
2018-03-24T09:15:03.144Z,99.99
2018-03-24T09:20:03.723Z,99.99
2018-03-24T09:25:03.315Z,99.99
2018-03-24T09:30:02.836Z,99.99
2018-03-24T09:35:03.660Z,99.99
2018-03-24T09:40:03.289Z,99.99
2018-03-24T09:45:02.845Z,99.99
2018-03-24T09:50:03.381Z,99.99
2018-03-24T09:55:02.896Z,99.99
2018-03-24T10:00:03.528Z,99.99
2018-03-24T10:05:03.220Z,99.99
2018-03-24T10:10:02.901Z,99.99
2018-03-24T10:15:03.472Z,99.99
2018-03-24T10:20:03.005Z,99.99
2018-03-24T10:25:03.592Z,99.99
2018-03-24T10:30:03.155Z,99.99
2018-03-24T10:35:03.664Z,99.99
2018-03-24T10:40:03.357Z,99.99
2018-03-24T10:45:02.951Z,98.18
2018-03-24T10:50:03.516Z,91.39
2018-03-24T10:55:03.147Z,95.79
2018-03-24T11:00:03.694Z,94.26
2018-03-24T11:05:03.255Z,88.95
2018-03-24T11:10:02.864Z,86.13
2018-03-24T11:15:03.378Z,87.52
2018-03-24T11:20:02.986Z,84.22
2018-03-24T11:25:03.962Z,83.31
2018-03-24T11:30:03.500Z,84.8
2018-03-24T11:35:03.163Z,83.46
2018-03-24T11:40:02.814Z,82.01
2018-03-24T11:45:03.585Z,82.26
2018-03-24T11:50:03.089Z,82.6
2018-03-24T11:55:03.593Z,83.61
2018-03-24T12:00:03.123Z,85.81
2018-03-24T12:05:03.662Z,86.76
2018-03-24T12:10:03.239Z,87.01
2018-03-24T12:15:02.785Z,87.1
2018-03-24T12:20:03.287Z,86.82
2018-03-24T12:25:02.807Z,89.59
2018-03-24T12:30:03.393Z,88.01
2018-03-24T12:35:02.996Z,87.34
2018-03-24T12:40:03.618Z,86.72
2018-03-24T12:45:03.147Z,86.43
2018-03-24T12:50:03.778Z,88.73
2018-03-24T12:55:03.386Z,87.05
2018-03-24T13:00:02.985Z,89.06
2018-03-24T13:05:03.580Z,86.57
2018-03-24T13:10:03.196Z,85.52
2018-03-24T13:15:03.775Z,84.32
2018-03-24T13:20:03.339Z,84.23
2018-03-24T13:25:02.898Z,82.51
2018-03-24T13:30:03.475Z,82.17
2018-03-24T13:35:02.970Z,80.02
2018-03-24T13:40:03.591Z,80.65
2018-03-24T13:45:03.196Z,82.08
2018-03-24T13:50:02.805Z,82.22
2018-03-24T13:55:03.404Z,81.16
2018-03-24T14:00:02.928Z,79.73
2018-03-24T14:05:03.547Z,78.68
2018-03-24T14:10:03.231Z,79.41
2018-03-24T14:15:02.834Z,78.64
2018-03-24T14:20:03.424Z,79.56
2018-03-24T14:25:02.946Z,79.65
2018-03-24T14:30:03.479Z,79.6
2018-03-24T14:35:03.044Z,77.97
2018-03-24T14:40:03.639Z,76.64
2018-03-24T14:45:03.273Z,77.36
2018-03-24T14:50:02.877Z,78.7
2018-03-24T14:55:03.453Z,77.65
2018-03-24T15:00:03.090Z,79.36
2018-03-24T15:05:03.629Z,79.08
2018-03-24T15:10:03.231Z,78.51
2018-03-24T15:15:02.759Z,78.89
2018-03-24T15:20:03.427Z,78.85
2018-03-24T15:25:03.001Z,78.7
2018-03-24T15:30:03.542Z,79.75
2018-03-24T15:35:03.059Z,79.56
2018-03-24T15:40:03.608Z,79.94
2018-03-24T15:45:03.207Z,79.17
2018-03-24T15:50:02.880Z,78.89
2018-03-24T15:55:03.423Z,78.83
2018-03-24T16:00:03.065Z,78.55
2018-03-24T16:05:03.705Z,78.93
2018-03-24T16:10:03.210Z,78.83
2018-03-24T16:15:03.795Z,79.12
2018-03-24T16:20:03.318Z,79.98
2018-03-24T16:25:02.838Z,80.22
2018-03-24T16:30:03.380Z,80.7
2018-03-24T16:35:02.959Z,80.8
2018-03-24T16:40:03.532Z,80.51
2018-03-24T16:45:03.093Z,80.57
2018-03-24T16:50:03.653Z,81.81
2018-03-24T16:55:03.195Z,83.05
2018-03-24T17:00:04.011Z,83.96
2018-03-24T17:05:03.690Z,85.3
2018-03-24T17:10:03.334Z,86.06
2018-03-24T17:15:02.841Z,87.4
2018-03-24T17:20:03.472Z,88.64
2018-03-24T17:25:03.097Z,90.12
2018-03-24T17:30:03.677Z,91.36
2018-03-24T17:35:03.245Z,92.98
2018-03-24T17:40:02.866Z,93.88
2018-03-24T17:45:03.762Z,94.84
2018-03-24T17:50:03.318Z,95.41
2018-03-24T17:55:02.840Z,96.41
2018-03-24T18:00:03.423Z,98.03
2018-03-24T18:05:02.999Z,99.55
2018-03-24T18:10:03.761Z,99.99
2018-03-24T18:15:03.313Z,99.99
2018-03-24T18:20:02.833Z,99.99
2018-03-24T18:25:03.340Z,99.99
2018-03-24T18:30:02.934Z,99.99
2018-03-24T18:35:03.698Z,99.99
2018-03-24T18:40:03.332Z,99.99
2018-03-24T18:45:02.903Z,99.99
2018-03-24T18:50:03.433Z,99.99
2018-03-24T18:55:02.921Z,99.99
2018-03-24T19:00:03.509Z,99.99
2018-03-24T19:05:03.048Z,99.99
2018-03-24T19:10:03.658Z,99.99
2018-03-24T19:15:03.163Z,99.99
2018-03-24T19:20:04.021Z,99.99
2018-03-24T19:25:03.543Z,99.99
2018-03-24T19:30:03.037Z,99.99
2018-03-24T19:35:03.544Z,99.99
2018-03-24T19:40:03.053Z,99.99
2018-03-24T19:45:03.548Z,99.99
2018-03-24T19:50:03.082Z,99.99
2018-03-24T19:55:03.673Z,99.99
2018-03-24T20:00:03.220Z,99.99
2018-03-24T20:05:03.739Z,99.99
2018-03-24T20:10:03.369Z,99.99
2018-03-24T20:15:02.872Z,99.99
2018-03-24T20:20:03.449Z,99.99
2018-03-24T20:25:03.038Z,99.99
2018-03-24T20:30:03.534Z,99.99
2018-03-24T20:35:03.233Z,99.99
2018-03-24T20:40:02.814Z,99.99
2018-03-24T20:45:03.383Z,99.99
2018-03-24T20:50:02.896Z,99.99
2018-03-24T20:55:03.481Z,99.99
2018-03-24T21:00:03.036Z,99.91
2018-03-24T21:05:03.633Z,98.59
2018-03-24T21:10:03.288Z,97.26
2018-03-24T21:15:02.808Z,94.98
2018-03-24T21:20:03.453Z,93.75
2018-03-24T21:25:03.008Z,92.52
2018-03-24T21:30:03.567Z,91.56
2018-03-24T21:35:03.211Z,90.33
2018-03-24T21:40:02.804Z,87.96
2018-03-24T21:45:03.308Z,86.54
2018-03-24T21:50:02.899Z,84.88
2018-03-24T21:55:03.458Z,83.08
2018-03-24T22:00:02.975Z,80.71
2018-03-24T22:05:03.587Z,79.28
2018-03-24T22:10:03.302Z,77.67
2018-03-24T22:15:02.877Z,75.96
2018-03-24T22:20:03.604Z,74.26
2018-03-24T22:25:03.184Z,71.51
2018-03-24T22:30:03.899Z,69.8
2018-03-24T22:35:03.480Z,68.35
2018-03-24T22:40:03.120Z,66.54
2018-03-24T22:45:03.687Z,64.08
2018-03-24T22:50:03.286Z,62.94
2018-03-24T22:55:02.886Z,61.52
2018-03-24T23:00:03.478Z,60.38
2018-03-24T23:05:03.052Z,58.96
2018-03-24T23:10:03.708Z,58.39
2018-03-24T23:15:03.217Z,57.92
2018-03-24T23:20:03.734Z,56.97
2018-03-24T23:25:03.269Z,56.3
2018-03-24T23:30:02.743Z,55.26
2018-03-24T23:35:03.284Z,54.47
2018-03-24T23:40:03.198Z,53.53
2018-03-24T23:45:03.755Z,52.39
2018-03-24T23:50:03.283Z,50.12
2018-03-24T23:55:02.806Z,49.27
